Darstellungsparameter: Aktuell verwendete Einstellungen:
Skalierung der Graphiken ... ?
xyx+y,   Skalierungsfaktor:      Skalierung: Modus: x, Faktor: 1
Darstellungszeitraum ... ?
Vom - - bis: - -   Zeitraum: 02.06.2009 - 06.06.2009
Min/Max/Avg-Anzeige ... ?
Zeige MMA aktuell
Zeige MMA Monat
Zeige MMA alles
Zeige --A aktuell
Zeige --A Monat
Zeige --A alles
Keine MMA-Anzeige
MMA:
Keine MMA-Graphiken
MMA-Basis: 02.06.2009 - 06.06.2009
Quicknavigation für Darstellung... ?
Tage:      1T, 2T, 3T, 5T -1T -2T -3T -5T +1T +2T +3T +5T
Wochen: 1W, 2W, 3W -1W -2W -3W +1W +2W +3W
Monate: 1M, 3M, 6M -1M -3M -6M +1M +3M +6M
Jahre:    1J, 3J, 5J, 10J -1J -3J -5J -10J +1J +3J +5J +10J
Nutze für die Darstellung ... ?
Originaldaten oder Mittelwerte auf ...
Stundenbasis Tagesbasis Wochenbasis
Monatsbasis Jahresbasis      Datenbasis: Original-Daten
Darstellen als:
Statistik (Auto) Statistik J:M      Darstellung:
Zur Graphik,    zurück zur Übersicht aller Sensoren.
 
Tabellarische Datenbersicht: ?
 
Sensor: Nr:Datum:Temp:Abs-Feuchte:Windchill:Wind:
Aussen-T/F 1 02-06-2009 00:03:09 16.4 C 9.21 g/m*3 16.4 C 0 km/h
2 02-06-2009 00:15:09 16.1 C 9.18 g/m*3 16.1 C 0 km/h
3 02-06-2009 00:27:09 16 C 9.26 g/m*3 16 C 0 km/h
4 02-06-2009 00:39:09 15.8 C 9.56 g/m*3 15.8 C 0 km/h
5 02-06-2009 00:51:09 15.5 C 9.65 g/m*3 15.5 C 0 km/h
6 02-06-2009 01:03:09 15.3 C 9.66 g/m*3 15.3 C 0 km/h
7 02-06-2009 01:15:09 15 C 9.62 g/m*3 15 C 0 km/h
8 02-06-2009 01:27:10 14.9 C 9.69 g/m*3 14.9 C 0 km/h
9 02-06-2009 01:39:10 14.7 C 9.82 g/m*3 14.7 C 0 km/h
10 02-06-2009 01:51:10 14.6 C 9.76 g/m*3 14.6 C 0 km/h
11 02-06-2009 02:03:10 14.4 C 9.64 g/m*3 14.4 C 0 km/h
12 02-06-2009 02:15:10 14.1 C 9.59 g/m*3 14.1 C 0 km/h
13 02-06-2009 02:27:10 14 C 9.65 g/m*3 14 C 0 km/h
14 02-06-2009 02:39:10 13.7 C 9.59 g/m*3 13.7 C 0 km/h
15 02-06-2009 02:51:10 13.7 C 9.59 g/m*3 13.7 C 0 km/h
16 02-06-2009 03:03:10 13.7 C 9.59 g/m*3 13.7 C 0 km/h
17 02-06-2009 03:15:10 13.5 C 9.59 g/m*3 13.5 C 0 km/h
18 02-06-2009 03:27:10 13.4 C 9.53 g/m*3 13.4 C 0 km/h
19 02-06-2009 03:39:10 13.4 C 9.53 g/m*3 13.4 C 0 km/h
20 02-06-2009 03:51:10 13.4 C 9.53 g/m*3 13.4 C 0 km/h
21 02-06-2009 04:03:10 13.4 C 9.42 g/m*3 13.4 C 0 km/h
22 02-06-2009 04:15:10 13.2 C 9.3 g/m*3 13.2 C 0 km/h
23 02-06-2009 04:27:10 13 C 9.19 g/m*3 13 C 0 km/h
24 02-06-2009 04:39:10 12.9 C 9.35 g/m*3 12.9 C 0 km/h
25 02-06-2009 04:51:10 12.8 C 9.3 g/m*3 12.8 C 0 km/h
Sensor: Nr:Datum:Temp:Abs-Feuchte:Windchill:Wind:
Aussen-T/F 26 02-06-2009 05:03:10 12.7 C 9.35 g/m*3 12.7 C 0 km/h
27 02-06-2009 05:15:11 12.5 C 9.24 g/m*3 12.5 C 0 km/h
28 02-06-2009 05:27:11 12.4 C 9.18 g/m*3 12.4 C 0 km/h
29 02-06-2009 05:39:11 12.4 C 9.18 g/m*3 12.4 C 0 km/h
30 02-06-2009 05:51:11 12.4 C 9.18 g/m*3 12.4 C 0 km/h
31 02-06-2009 06:03:11 12.4 C 9.18 g/m*3 12.4 C 0 km/h
32 02-06-2009 06:15:11 12.6 C 9.18 g/m*3 12.6 C 0 km/h
33 02-06-2009 06:27:11 12.9 C 8.9 g/m*3 12.9 C 0 km/h
34 02-06-2009 06:39:54 13.1 C 8.22 g/m*3 13.1 C 0 km/h
35 02-06-2009 06:51:54 13.5 C 7.95 g/m*3 13.5 C 0 km/h
36 02-06-2009 07:03:53 13.6 C 7.77 g/m*3 13.6 C 0 km/h
37 02-06-2009 07:15:54 13.7 C 7.7 g/m*3 13.7 C 0 km/h
38 02-06-2009 07:27:54 13.8 C 7.86 g/m*3 13.8 C 0 km/h
39 02-06-2009 07:39:53 13.7 C 7.7 g/m*3 13.7 C 0 km/h
40 02-06-2009 07:51:53 14 C 7.6 g/m*3 14 C 0 km/h
41 02-06-2009 08:03:53 14.2 C 7.82 g/m*3 14.2 C 0 km/h
42 02-06-2009 08:15:53 14.4 C 7.91 g/m*3 14.4 C 0 km/h
43 02-06-2009 08:27:53 14.6 C 7.63 g/m*3 14.6 C 0 km/h
44 02-06-2009 08:39:53 14.7 C 7.68 g/m*3 14.7 C 0 km/h
45 02-06-2009 08:51:53 15.1 C 7.74 g/m*3 15.1 C 0 km/h
46 02-06-2009 09:03:53 15.5 C 7.8 g/m*3 15.5 C 0 km/h
47 02-06-2009 09:15:52 15.8 C 7.81 g/m*3 15.8 C 0 km/h
48 02-06-2009 09:27:52 16 C 7.63 g/m*3 16 C 0 km/h
49 02-06-2009 09:39:53 16.5 C 7.86 g/m*3 16.5 C 0 km/h
50 02-06-2009 09:51:52 17 C 7.81 g/m*3 17 C 0 km/h
Sensor: Nr:Datum:Temp:Abs-Feuchte:Windchill:Wind:
Aussen-T/F 51 02-06-2009 10:03:52 17.6 C 7.8 g/m*3 17.6 C 0 km/h
52 02-06-2009 10:15:51 18 C 7.83 g/m*3 18 C 0 km/h
53 02-06-2009 10:27:51 18.3 C 7.82 g/m*3 18.3 C 0 km/h
54 02-06-2009 10:39:52 18.8 C 7.73 g/m*3 18.8 C 0 km/h
55 02-06-2009 10:51:51 18.8 C 7.57 g/m*3 18.8 C 0 km/h
56 02-06-2009 11:03:51 19.3 C 7.8 g/m*3 19.3 C 0 km/h
57 02-06-2009 11:15:52 19.5 C 7.89 g/m*3 19.5 C 0 km/h
58 02-06-2009 11:27:52 20.6 C 8.23 g/m*3 20.6 C 0 km/h
59 02-06-2009 11:39:51 20.5 C 8.19 g/m*3 20.5 C 0 km/h
60 02-06-2009 11:51:51 20.8 C 8.15 g/m*3 20.8 C 0 km/h
61 02-06-2009 12:03:51 21.8 C 7.87 g/m*3 21.8 C 0 km/h
62 02-06-2009 12:15:51 22.4 C 7.75 g/m*3 22.4 C 0 km/h
63 02-06-2009 12:27:51 23.8 C 7.74 g/m*3 23.8 C 0 km/h
64 02-06-2009 12:39:50 23.2 C 7.28 g/m*3 23.2 C 0 km/h
65 02-06-2009 12:51:51 23.8 C 7.31 g/m*3 23.8 C 0 km/h
66 02-06-2009 13:03:50 24.1 C 7 g/m*3 24.1 C 0 km/h
67 02-06-2009 13:15:50 24.3 C 6.86 g/m*3 24.3 C 0 km/h
68 02-06-2009 13:27:50 24.4 C 6.45 g/m*3 24.4 C 0 km/h
69 02-06-2009 13:39:50 24.6 C 5.85 g/m*3 24.6 C 0 km/h
70 02-06-2009 13:51:50 24.4 C 5.56 g/m*3 24.4 C 0 km/h
71 02-06-2009 14:03:50 24.3 C 5.53 g/m*3 24.3 C 0 km/h
72 02-06-2009 14:15:49 24.6 C 5.85 g/m*3 24.6 C 0 km/h
73 02-06-2009 14:27:49 24 C 5.87 g/m*3 24 C 0 km/h
74 02-06-2009 14:39:50 25.2 C 5.82 g/m*3 25.2 C 0 km/h
75 02-06-2009 14:51:49 24.6 C 5.63 g/m*3 24.6 C 0 km/h
Sensor: Nr:Datum:Temp:Abs-Feuchte:Windchill:Wind:
Aussen-T/F 76 02-06-2009 15:03:49 24.7 C 5.21 g/m*3 24.7 C 0 km/h
77 02-06-2009 15:15:48 25.4 C 5.41 g/m*3 25.4 C 0 km/h
78 02-06-2009 15:27:48 25.7 C 5.03 g/m*3 25.7 C 0 km/h
79 02-06-2009 15:39:49 25.9 C 5.57 g/m*3 25.9 C 0 km/h
80 02-06-2009 15:51:48 27 C 5.4 g/m*3 27 C 0 km/h
81 02-06-2009 16:03:48 26.5 C 5.76 g/m*3 26.5 C 0 km/h
82 02-06-2009 16:15:49 26 C 5.11 g/m*3 26 C 0 km/h
83 02-06-2009 16:27:49 26.7 C 5.06 g/m*3 26.7 C 0 km/h
84 02-06-2009 16:39:48 27.1 C 5.18 g/m*3 27.1 C 0 km/h
85 02-06-2009 16:51:48 27 C 5.15 g/m*3 27 C 0 km/h
86 02-06-2009 17:03:48 27.8 C 5.38 g/m*3 27.8 C 0 km/h
87 02-06-2009 17:15:48 27.5 C 5.29 g/m*3 27.5 C 0 km/h
88 02-06-2009 17:27:49 27.1 C 5.18 g/m*3 27.1 C 0 km/h
89 02-06-2009 17:39:47 27.8 C 5.38 g/m*3 27.8 C 0 km/h
90 02-06-2009 17:51:48 27.6 C 5.32 g/m*3 27.6 C 0 km/h
91 02-06-2009 18:03:48 27.8 C 5.38 g/m*3 27.8 C 0 km/h
92 02-06-2009 18:15:47 28.1 C 5.47 g/m*3 28.1 C 0 km/h
93 02-06-2009 18:27:47 28.5 C 5.59 g/m*3 28.5 C 0 km/h
94 02-06-2009 18:39:47 29.2 C 5.81 g/m*3 29.2 C 0 km/h
95 02-06-2009 18:51:47 27.5 C 5.29 g/m*3 27.5 C 0 km/h
96 02-06-2009 19:03:47 28.6 C 5.62 g/m*3 28.6 C 0 km/h
97 02-06-2009 19:15:46 28.2 C 5.5 g/m*3 28.2 C 0 km/h
98 02-06-2009 19:27:46 28.1 C 5.47 g/m*3 28.1 C 0 km/h
99 02-06-2009 19:39:47 27.4 C 5.26 g/m*3 27.4 C 0 km/h
100 02-06-2009 19:51:46 27.9 C 5.68 g/m*3 27.9 C 0 km/h
Sensor: Nr:Datum:Temp:Abs-Feuchte:Windchill:Wind:
Aussen-T/F 101 02-06-2009 20:03:46 27.6 C 5.59 g/m*3 27.6 C 0 km/h
102 02-06-2009 20:15:46 27.3 C 5.49 g/m*3 27.3 C 0 km/h
103 02-06-2009 20:27:46 26.4 C 5.73 g/m*3 26.4 C 0 km/h
104 02-06-2009 20:39:46 25.3 C 5.85 g/m*3 25.3 C 0 km/h
105 02-06-2009 20:51:46 24.2 C 5.72 g/m*3 24.2 C 0 km/h
106 02-06-2009 21:03:45 23.9 C 5.62 g/m*3 23.9 C 0 km/h
107 02-06-2009 21:15:46 23.3 C 5.23 g/m*3 23.3 C 0 km/h
108 02-06-2009 21:27:46 22.7 C 5.46 g/m*3 22.7 C 0 km/h
109 02-06-2009 21:39:45 22.4 C 5.56 g/m*3 22.4 C 0 km/h
110 02-06-2009 21:51:13 22.1 C 5.47 g/m*3 22.1 C 0 km/h
111 02-06-2009 22:03:13 21.7 C 5.72 g/m*3 21.7 C 0 km/h
112 02-06-2009 22:15:13 21.5 C 5.66 g/m*3 21.5 C 0 km/h
113 02-06-2009 22:27:13 21.2 C 5.56 g/m*3 21.2 C 0 km/h
114 02-06-2009 22:39:13 20.9 C 5.83 g/m*3 20.9 C 0 km/h
115 02-06-2009 22:51:13 20.6 C 5.91 g/m*3 20.6 C 0 km/h
116 02-06-2009 23:03:13 20.3 C 5.8 g/m*3 20.3 C 0 km/h
117 02-06-2009 23:15:13 20.2 C 5.77 g/m*3 20.2 C 0 km/h
118 02-06-2009 23:27:45 19.9 C 5.84 g/m*3 19.9 C 0 km/h
119 02-06-2009 23:39:45 19.7 C 5.77 g/m*3 19.7 C 0 km/h
120 02-06-2009 23:51:45 19.9 C 6.01 g/m*3 19.9 C 0 km/h
121 03-06-2009 00:03:45 19.7 C 5.77 g/m*3 19.7 C 0 km/h
122 03-06-2009 00:15:45 19.4 C 5.67 g/m*3 19.4 C 0 km/h
123 03-06-2009 00:27:45 19 C 5.38 g/m*3 19 C 0 km/h
124 03-06-2009 00:39:44 18.6 C 5.57 g/m*3 18.6 C 0 km/h
125 03-06-2009 00:51:45 18.2 C 5.44 g/m*3 18.2 C 0 km/h
Sensor: Nr:Datum:Temp:Abs-Feuchte:Windchill:Wind:
Aussen-T/F 126 03-06-2009 01:03:44 17.9 C 5.5 g/m*3 17.9 C 0 km/h
127 03-06-2009 01:15:44 17.7 C 5.43 g/m*3 17.7 C 0 km/h
128 03-06-2009 01:27:44 17.3 C 5.3 g/m*3 17.3 C 0 km/h
129 03-06-2009 01:39:44 17.1 C 5.24 g/m*3 17.1 C 0 km/h
130 03-06-2009 01:51:44 16.8 C 5.29 g/m*3 16.8 C 0 km/h
131 03-06-2009 02:03:44 16.4 C 5.16 g/m*3 16.4 C 0 km/h
132 03-06-2009 02:15:43 16 C 5.18 g/m*3 16 C 0 km/h
133 03-06-2009 02:27:43 15.7 C 5.22 g/m*3 15.7 C 0 km/h
134 03-06-2009 02:39:44 15.4 C 5.65 g/m*3 15.4 C 0 km/h
135 03-06-2009 02:52:45 15.1 C 5.81 g/m*3 15.1 C 0 km/h
136 03-06-2009 03:04:45 15 C 5.77 g/m*3 15 C 0 km/h
137 03-06-2009 03:16:45 14.6 C 5.88 g/m*3 14.6 C 0 km/h
138 03-06-2009 03:28:45 14.4 C 5.81 g/m*3 14.4 C 0 km/h
139 03-06-2009 03:40:45 14.2 C 5.74 g/m*3 14.2 C 0 km/h
140 03-06-2009 03:52:45 13.8 C 5.96 g/m*3 13.8 C 0 km/h
141 03-06-2009 04:04:45 13.7 C 6.04 g/m*3 13.7 C 0 km/h
142 03-06-2009 04:16:44 13.6 C 6 g/m*3 13.6 C 0 km/h
143 03-06-2009 04:28:44 13.5 C 5.97 g/m*3 13.5 C 0 km/h
144 03-06-2009 04:40:45 13.3 C 6.01 g/m*3 13.3 C 0 km/h
145 03-06-2009 04:52:44 13.1 C 5.93 g/m*3 13.1 C 0 km/h
146 03-06-2009 05:04:44 13 C 5.9 g/m*3 13 C 0 km/h
147 03-06-2009 05:16:44 13 C 5.9 g/m*3 13 C 0 km/h
148 03-06-2009 05:28:44 12.8 C 5.94 g/m*3 12.8 C 0 km/h
149 03-06-2009 05:40:44 12.7 C 6.01 g/m*3 12.7 C 0 km/h
150 03-06-2009 05:52:44 12.7 C 6.01 g/m*3 12.7 C 0 km/h
Sensor: Nr:Datum:Temp:Abs-Feuchte:Windchill:Wind:
Aussen-T/F 151 03-06-2009 06:04:43 12.9 C 6.2 g/m*3 12.9 C 0 km/h
152 03-06-2009 06:16:43 13 C 6.24 g/m*3 13 C 0 km/h
153 03-06-2009 06:28:43 13 C 6.24 g/m*3 13 C 0 km/h
154 03-06-2009 06:40:43 13 C 6.35 g/m*3 13 C 0 km/h
155 03-06-2009 06:52:43 12.9 C 6.54 g/m*3 12.9 C 0 km/h
156 03-06-2009 07:04:42 12.8 C 6.27 g/m*3 12.8 C 0 km/h
157 03-06-2009 07:16:43 12.7 C 6.35 g/m*3 12.7 C 0 km/h
158 03-06-2009 07:28:43 12.5 C 6.05 g/m*3 12.5 C 0 km/h
159 03-06-2009 07:40:43 12.8 C 6.16 g/m*3 12.8 C 0 km/h
160 03-06-2009 07:52:42 12.9 C 6.2 g/m*3 12.9 C 0 km/h
161 03-06-2009 08:04:43 12.8 C 5.94 g/m*3 12.8 C 0 km/h
162 03-06-2009 08:16:42 12.8 C 5.94 g/m*3 12.8 C 0 km/h
163 03-06-2009 08:28:42 13 C 5.9 g/m*3 13 C 0 km/h
164 03-06-2009 08:40:42 13 C 5.67 g/m*3 13 C 0 km/h
165 03-06-2009 08:52:42 13.1 C 5.48 g/m*3 13.1 C 0 km/h
166 03-06-2009 09:04:42 13.5 C 5.5 g/m*3 13.5 C 0 km/h
167 03-06-2009 09:16:41 13.9 C 5.39 g/m*3 13.9 C 0 km/h
168 03-06-2009 09:28:41 13.9 C 5.04 g/m*3 13.9 C 0 km/h
169 03-06-2009 09:40:41 14.6 C 5.13 g/m*3 14.6 C 0 km/h
170 03-06-2009 09:52:41 14.7 C 5.67 g/m*3 14.7 C 0 km/h
171 03-06-2009 10:04:41 14.2 C 5.62 g/m*3 14.2 C 0 km/h
172 03-06-2009 10:16:41 14.9 C 5.23 g/m*3 14.9 C 0 km/h
173 03-06-2009 10:28:41 14.6 C 5.63 g/m*3 14.6 C 0 km/h
174 03-06-2009 10:40:41 15 C 5.39 g/m*3 15 C 0 km/h
175 03-06-2009 10:52:41 15.4 C 5.26 g/m*3 15.4 C 0 km/h
Sensor: Nr:Datum:Temp:Abs-Feuchte:Windchill:Wind:
Aussen-T/F 176 03-06-2009 11:04:40 14.9 C 5.23 g/m*3 14.9 C 0 km/h
177 03-06-2009 11:16:41 15.2 C 5.19 g/m*3 15.2 C 0 km/h
178 03-06-2009 11:28:41 16 C 5.31 g/m*3 16 C 0 km/h
179 03-06-2009 11:40:40 16.8 C 5.43 g/m*3 16.8 C 0 km/h
180 03-06-2009 11:52:40 17 C 5.21 g/m*3 17 C 0 km/h
181 03-06-2009 12:04:40 16.7 C 4.97 g/m*3 16.7 C 0 km/h
182 03-06-2009 12:16:40 16.8 C 4.86 g/m*3 16.8 C 0 km/h
183 03-06-2009 12:28:40 17.7 C 4.98 g/m*3 17.7 C 0 km/h
184 03-06-2009 12:40:39 17.9 C 4.73 g/m*3 17.9 C 0 km/h
185 03-06-2009 12:52:40 18.8 C 4.83 g/m*3 18.8 C 0 km/h
186 03-06-2009 13:04:40 17.3 C 4.42 g/m*3 17.3 C 0 km/h
187 03-06-2009 13:16:39 18.2 C 4.66 g/m*3 18.2 C 0 km/h
188 03-06-2009 13:28:39 19.5 C 4.53 g/m*3 19.5 C 0 km/h
189 03-06-2009 13:40:39 18.4 C 4.09 g/m*3 18.4 C 0 km/h
190 03-06-2009 13:52:39 19.8 C 4.27 g/m*3 19.8 C 0 km/h
191 03-06-2009 14:04:39 19.3 C 4.15 g/m*3 19.3 C 0 km/h
192 03-06-2009 14:16:38 20.1 C 4.35 g/m*3 20.1 C 0 km/h
193 03-06-2009 14:28:38 19.3 C 4.31 g/m*3 19.3 C 0 km/h
194 03-06-2009 14:40:39 19.1 C 4.43 g/m*3 19.1 C 0 km/h
195 03-06-2009 14:52:38 19.7 C 4.92 g/m*3 19.7 C 0 km/h
196 03-06-2009 15:04:38 20.5 C 4.45 g/m*3 20.5 C 0 km/h
197 03-06-2009 15:16:39 20 C 4.67 g/m*3 20 C 0 km/h
198 03-06-2009 15:28:39 20.8 C 4.53 g/m*3 20.8 C 0 km/h
199 03-06-2009 15:40:38 20.4 C 4.6 g/m*3 20.4 C 0 km/h
200 03-06-2009 15:52:37 20.9 C 4.55 g/m*3 20.9 C 0 km/h
Sensor: Nr:Datum:Temp:Abs-Feuchte:Windchill:Wind:
Aussen-T/F 201 03-06-2009 16:04:38 20.1 C 4.52 g/m*3 20.1 C 0 km/h
202 03-06-2009 16:16:38 20.4 C 4.42 g/m*3 20.4 C 0 km/h
203 03-06-2009 16:28:38 20.2 C 4.55 g/m*3 20.2 C 0 km/h
204 03-06-2009 16:40:37 20.3 C 4.75 g/m*3 20.3 C 0 km/h
205 03-06-2009 16:52:38 20 C 4.32 g/m*3 20 C 0 km/h
206 03-06-2009 17:04:37 20.3 C 4.57 g/m*3 20.3 C 0 km/h
207 03-06-2009 17:16:37 20.6 C 4.65 g/m*3 20.6 C 0 km/h
208 03-06-2009 17:28:37 20.7 C 4.32 g/m*3 20.7 C 0 km/h
209 03-06-2009 17:40:36 19.4 C 4.34 g/m*3 19.4 C 0 km/h
210 03-06-2009 17:52:37 20.6 C 4.12 g/m*3 20.6 C 0 km/h
211 03-06-2009 18:04:36 19.2 C 3.79 g/m*3 19.2 C 0 km/h
212 03-06-2009 18:16:36 20.3 C 4.05 g/m*3 20.3 C 0 km/h
213 03-06-2009 18:28:36 19.3 C 3.98 g/m*3 19.3 C 0 km/h
214 03-06-2009 18:40:37 20 C 4.32 g/m*3 20 C 0 km/h
215 03-06-2009 18:52:36 19 C 4.24 g/m*3 19 C 0 km/h
216 03-06-2009 19:04:36 19.1 C 4.26 g/m*3 19.1 C 0 km/h
217 03-06-2009 19:16:36 18.8 C 4.51 g/m*3 18.8 C 0 km/h
218 03-06-2009 19:28:36 18.1 C 4.64 g/m*3 18.1 C 0 km/h
219 03-06-2009 19:40:36 18 C 4.61 g/m*3 18 C 0 km/h
220 03-06-2009 19:52:36 18 C 4.76 g/m*3 18 C 0 km/h
221 03-06-2009 20:04:36 17.7 C 4.83 g/m*3 17.7 C 0 km/h
222 03-06-2009 20:16:36 16.9 C 5.03 g/m*3 16.9 C 0 km/h
223 03-06-2009 20:28:36 16.6 C 5.09 g/m*3 16.6 C 0 km/h
224 03-06-2009 20:40:35 16.4 C 5.02 g/m*3 16.4 C 0 km/h
225 03-06-2009 20:52:34 16.5 C 4.91 g/m*3 16.5 C 0 km/h
Sensor: Nr:Datum:Temp:Abs-Feuchte:Windchill:Wind:
Aussen-T/F 226 03-06-2009 21:04:35 16.1 C 4.8 g/m*3 16.1 C 0 km/h
227 03-06-2009 21:16:35 16 C 4.77 g/m*3 16 C 0 km/h
228 03-06-2009 21:28:35 15.9 C 4.88 g/m*3 15.9 C 0 km/h
229 03-06-2009 21:40:34 15.5 C 4.63 g/m*3 15.5 C 0 km/h
230 03-06-2009 21:52:35 15.4 C 4.73 g/m*3 15.4 C 0 km/h
231 03-06-2009 22:05:35 15.3 C 4.7 g/m*3 15.3 C 0 km/h
232 03-06-2009 22:17:35 15.2 C 4.67 g/m*3 15.2 C 0 km/h
233 03-06-2009 22:29:35 15 C 4.62 g/m*3 15 C 0 km/h
234 03-06-2009 22:41:35 14.7 C 4.78 g/m*3 14.7 C 0 km/h
235 03-06-2009 22:53:35 14.9 C 4.84 g/m*3 14.9 C 0 km/h
236 03-06-2009 23:05:35 14.8 C 4.69 g/m*3 14.8 C 0 km/h
237 03-06-2009 23:17:35 14.6 C 4.88 g/m*3 14.6 C 0 km/h
238 03-06-2009 23:29:36 14.5 C 4.97 g/m*3 14.5 C 0 km/h
239 03-06-2009 23:41:36 14.2 C 5.01 g/m*3 14.2 C 0 km/h
240 03-06-2009 23:53:36 14 C 5.07 g/m*3 14 C 0 km/h
241 04-06-2009 00:05:36 13.7 C 5.21 g/m*3 13.7 C 0 km/h
242 04-06-2009 00:17:36 13.7 C 5.33 g/m*3 13.7 C 0 km/h
243 04-06-2009 00:29:36 13.4 C 5.23 g/m*3 13.4 C 0 km/h
244 04-06-2009 00:41:36 13.1 C 5.14 g/m*3 13.1 C 0 km/h
245 04-06-2009 00:53:36 13 C 5.22 g/m*3 13 C 0 km/h
246 04-06-2009 01:05:36 12.7 C 5.34 g/m*3 12.7 C 0 km/h
247 04-06-2009 01:17:36 12.6 C 5.42 g/m*3 12.6 C 0 km/h
248 04-06-2009 01:29:36 12.7 C 5.45 g/m*3 12.7 C 0 km/h
249 04-06-2009 01:41:36 12.6 C 5.42 g/m*3 12.6 C 0 km/h
250 04-06-2009 01:53:36 12.5 C 5.5 g/m*3 12.5 C 0 km/h
Sensor: Nr:Datum:Temp:Abs-Feuchte:Windchill:Wind:
Aussen-T/F 251 04-06-2009 02:05:36 12.5 C 4.95 g/m*3 12.5 C 0 km/h
252 04-06-2009 02:17:36 12.4 C 4.7 g/m*3 12.4 C 0 km/h
253 04-06-2009 02:29:36 12 C 4.48 g/m*3 12 C 0 km/h
254 04-06-2009 02:41:36 11.9 C 4.45 g/m*3 11.9 C 0 km/h
255 04-06-2009 02:53:36 11.7 C 4.18 g/m*3 11.7 C 0 km/h
256 04-06-2009 03:05:36 11.5 C 4.13 g/m*3 11.5 C 0 km/h
257 04-06-2009 03:17:37 11.2 C 3.95 g/m*3 11.2 C 0 km/h
258 04-06-2009 03:29:37 11 C 4 g/m*3 11 C 0 km/h
259 04-06-2009 03:41:37 10.8 C 4.15 g/m*3 10.8 C 0 km/h
260 04-06-2009 03:53:37 10.9 C 4.28 g/m*3 10.9 C 0 km/h
261 04-06-2009 04:05:37 10.8 C 4.15 g/m*3 10.8 C 0 km/h
262 04-06-2009 04:17:37 10.7 C 4.22 g/m*3 10.7 C 0 km/h
263 04-06-2009 04:29:37 10.6 C 4.29 g/m*3 10.6 C 0 km/h
264 04-06-2009 04:41:37 10.6 C 4.39 g/m*3 10.6 C 0 km/h
265 04-06-2009 04:53:37 10.7 C 4.62 g/m*3 10.7 C 0 km/h
266 04-06-2009 05:05:37 10.5 C 4.85 g/m*3 10.5 C 0 km/h
267 04-06-2009 05:17:37 10.5 C 4.95 g/m*3 10.5 C 0 km/h
268 04-06-2009 05:29:37 10.6 C 5.08 g/m*3 10.6 C 0 km/h
269 04-06-2009 05:41:37 10.7 C 5.11 g/m*3 10.7 C 0 km/h
270 04-06-2009 05:53:37 10.7 C 5.01 g/m*3 10.7 C 0 km/h
271 04-06-2009 06:05:37 10.7 C 5.11 g/m*3 10.7 C 0 km/h
272 04-06-2009 06:17:37 10.7 C 5.01 g/m*3 10.7 C 0 km/h
273 04-06-2009 06:29:37 10.5 C 4.75 g/m*3 10.5 C 0 km/h
274 04-06-2009 06:41:37 10.6 C 4.78 g/m*3 10.6 C 0 km/h
275 04-06-2009 06:53:35 10.7 C 4.91 g/m*3 10.7 C 0 km/h
Sensor: Nr:Datum:Temp:Abs-Feuchte:Windchill:Wind:
Aussen-T/F 276 04-06-2009 07:05:35 10.7 C 4.91 g/m*3 10.7 C 0 km/h
277 04-06-2009 07:17:35 11 C 4.8 g/m*3 11 C 0 km/h
278 04-06-2009 07:29:35 10.8 C 5.04 g/m*3 10.8 C 0 km/h
279 04-06-2009 07:41:35 10.8 C 5.34 g/m*3 10.8 C 0 km/h
280 04-06-2009 07:53:35 11 C 5.31 g/m*3 11 C 0 km/h
281 04-06-2009 08:05:34 11.6 C 5.4 g/m*3 11.6 C 0 km/h
282 04-06-2009 08:17:34 11.8 C 5.37 g/m*3 11.8 C 0 km/h
283 04-06-2009 08:29:34 11.9 C 5.3 g/m*3 11.9 C 0 km/h
284 04-06-2009 08:41:34 12.2 C 5.18 g/m*3 12.2 C 0 km/h
285 04-06-2009 08:53:34 12.5 C 5.17 g/m*3 12.5 C 0 km/h
286 04-06-2009 09:05:33 13 C 4.88 g/m*3 13 C 0 km/h
287 04-06-2009 09:17:34 12.8 C 4.59 g/m*3 12.8 C 0 km/h
288 04-06-2009 09:29:34 12.3 C 4.13 g/m*3 12.3 C 0 km/h
289 04-06-2009 09:41:34 12.7 C 4.23 g/m*3 12.7 C 0 km/h
290 04-06-2009 09:53:33 12.9 C 4.51 g/m*3 12.9 C 0 km/h
291 04-06-2009 10:05:34 13 C 4.2 g/m*3 13 C 0 km/h
292 04-06-2009 10:17:33 13.1 C 4.45 g/m*3 13.1 C 0 km/h
293 04-06-2009 10:29:33 14.1 C 4.49 g/m*3 14.1 C 0 km/h
294 04-06-2009 10:41:33 13.5 C 4.33 g/m*3 13.5 C 0 km/h
295 04-06-2009 10:53:33 13.2 C 4.36 g/m*3 13.2 C 0 km/h
296 04-06-2009 11:05:33 14 C 4.46 g/m*3 14 C 0 km/h
297 04-06-2009 11:17:32 14.7 C 4.53 g/m*3 14.7 C 0 km/h
298 04-06-2009 11:29:32 13.3 C 4.04 g/m*3 13.3 C 0 km/h
299 04-06-2009 11:41:32 13.1 C 3.99 g/m*3 13.1 C 0 km/h
300 04-06-2009 11:53:32 13.5 C 4.33 g/m*3 13.5 C 0 km/h
Sensor: Nr:Datum:Temp:Abs-Feuchte:Windchill:Wind:
Aussen-T/F 301 04-06-2009 12:05:32 14.7 C 4.53 g/m*3 14.7 C 0 km/h
302 04-06-2009 12:17:32 14.5 C 4.35 g/m*3 14.5 C 0 km/h
303 04-06-2009 12:29:32 14.6 C 4.25 g/m*3 14.6 C 0 km/h
304 04-06-2009 12:41:32 14.4 C 3.96 g/m*3 14.4 C 0 km/h
305 04-06-2009 12:53:32 14.7 C 4.28 g/m*3 14.7 C 0 km/h
306 04-06-2009 13:05:31 14.7 C 4.41 g/m*3 14.7 C 0 km/h
307 04-06-2009 13:17:32 15.7 C 4.01 g/m*3 15.7 C 0 km/h
308 04-06-2009 13:29:32 15.6 C 3.72 g/m*3 15.6 C 0 km/h
309 04-06-2009 13:41:31 14.9 C 3.95 g/m*3 14.9 C 0 km/h
310 04-06-2009 13:53:31 14.4 C 3.96 g/m*3 14.4 C 0 km/h
311 04-06-2009 14:05:31 15.1 C 4.13 g/m*3 15.1 C 0 km/h
312 04-06-2009 14:17:31 16.2 C 4.14 g/m*3 16.2 C 0 km/h
313 04-06-2009 14:29:31 15.3 C 3.79 g/m*3 15.3 C 0 km/h
314 04-06-2009 14:41:31 14.8 C 3.67 g/m*3 14.8 C 0 km/h
315 04-06-2009 14:53:30 15.8 C 3.9 g/m*3 15.8 C 0 km/h
316 04-06-2009 15:05:30 16.3 C 4.16 g/m*3 16.3 C 0 km/h
317 04-06-2009 15:17:30 17.5 C 3.88 g/m*3 17.5 C 0 km/h
318 04-06-2009 15:29:30 16.1 C 3.56 g/m*3 16.1 C 0 km/h
319 04-06-2009 15:41:30 15.9 C 3.79 g/m*3 15.9 C 0 km/h
320 04-06-2009 15:53:30 16.4 C 3.77 g/m*3 16.4 C 0 km/h
321 04-06-2009 16:05:30 16.3 C 3.75 g/m*3 16.3 C 0 km/h
322 04-06-2009 16:17:30 16.2 C 3.59 g/m*3 16.2 C 0 km/h
323 04-06-2009 16:29:30 17.2 C 3.66 g/m*3 17.2 C 0 km/h
324 04-06-2009 16:41:30 16.5 C 3.51 g/m*3 16.5 C 0 km/h
325 04-06-2009 16:53:29 16.2 C 3.72 g/m*3 16.2 C 0 km/h
Sensor: Nr:Datum:Temp:Abs-Feuchte:Windchill:Wind:
Aussen-T/F 326 04-06-2009 17:05:29 16.1 C 3.84 g/m*3 16.1 C 0 km/h
327 04-06-2009 17:17:29 16.4 C 3.91 g/m*3 16.4 C 0 km/h
328 04-06-2009 17:29:29 15.6 C 3.86 g/m*3 15.6 C 0 km/h
329 04-06-2009 17:41:29 15.6 C 3.99 g/m*3 15.6 C 0 km/h
330 04-06-2009 17:53:28 16.2 C 4.14 g/m*3 16.2 C 0 km/h
331 04-06-2009 18:05:29 16 C 4.09 g/m*3 16 C 0 km/h
332 04-06-2009 18:17:29 15.8 C 4.17 g/m*3 15.8 C 0 km/h
333 04-06-2009 18:29:29 16.1 C 4.25 g/m*3 16.1 C 0 km/h
334 04-06-2009 18:41:29 15.4 C 4.07 g/m*3 15.4 C 0 km/h
335 04-06-2009 18:53:28 15.7 C 4.28 g/m*3 15.7 C 0 km/h
336 04-06-2009 19:05:28 15.3 C 4.18 g/m*3 15.3 C 0 km/h
337 04-06-2009 19:17:28 15.4 C 4.2 g/m*3 15.4 C 0 km/h
338 04-06-2009 19:29:28 15.4 C 4.34 g/m*3 15.4 C 0 km/h
339 04-06-2009 19:41:28 14.7 C 4.41 g/m*3 14.7 C 0 km/h
340 04-06-2009 19:53:28 15.1 C 4.52 g/m*3 15.1 C 0 km/h
341 04-06-2009 20:05:28 14.9 C 4.59 g/m*3 14.9 C 0 km/h
342 04-06-2009 20:17:27 14.9 C 4.59 g/m*3 14.9 C 0 km/h
343 04-06-2009 20:29:27 14.7 C 4.66 g/m*3 14.7 C 0 km/h
344 04-06-2009 20:41:27 14.5 C 4.73 g/m*3 14.5 C 0 km/h
345 04-06-2009 20:53:27 14.1 C 4.61 g/m*3 14.1 C 0 km/h
346 04-06-2009 21:05:27 14 C 4.7 g/m*3 14 C 0 km/h
347 04-06-2009 21:17:27 13.8 C 4.77 g/m*3 13.8 C 0 km/h
348 04-06-2009 21:29:27 13.7 C 4.86 g/m*3 13.7 C 0 km/h
349 04-06-2009 21:41:27 13.5 C 4.91 g/m*3 13.5 C 0 km/h
350 04-06-2009 21:53:27 13.5 C 5.03 g/m*3 13.5 C 0 km/h
Sensor: Nr:Datum:Temp:Abs-Feuchte:Windchill:Wind:
Aussen-T/F 351 04-06-2009 22:06:22 13.3 C 4.97 g/m*3 13.3 C 0 km/h
352 04-06-2009 22:18:22 13.2 C 4.94 g/m*3 13.2 C 0 km/h
353 04-06-2009 22:30:22 13 C 4.99 g/m*3 13 C 0 km/h
354 04-06-2009 22:42:22 13 C 4.88 g/m*3 13 C 0 km/h
355 04-06-2009 22:54:22 12.9 C 4.96 g/m*3 12.9 C 0 km/h
356 04-06-2009 23:06:22 12.7 C 5.01 g/m*3 12.7 C 0 km/h
357 04-06-2009 23:18:22 12.4 C 4.92 g/m*3 12.4 C 0 km/h
358 04-06-2009 23:30:22 12.2 C 4.86 g/m*3 12.2 C 0 km/h
359 04-06-2009 23:42:22 12.1 C 4.93 g/m*3 12.1 C 0 km/h
360 04-06-2009 23:54:22 12 C 5.01 g/m*3 12 C 0 km/h
361 05-06-2009 00:06:22 11.7 C 5.12 g/m*3 11.7 C 0 km/h
362 05-06-2009 00:18:22 11.7 C 5.12 g/m*3 11.7 C 0 km/h
363 05-06-2009 00:30:22 11.6 C 5.09 g/m*3 11.6 C 0 km/h
364 05-06-2009 00:42:22 11.4 C 4.82 g/m*3 11.4 C 0 km/h
365 05-06-2009 00:54:22 11.2 C 4.76 g/m*3 11.2 C 0 km/h
366 05-06-2009 01:06:22 11.2 C 4.66 g/m*3 11.2 C 0 km/h
367 05-06-2009 01:18:22 11.1 C 4.63 g/m*3 11.1 C 0 km/h
368 05-06-2009 01:30:22 11 C 4.6 g/m*3 11 C 0 km/h
369 05-06-2009 01:42:22 10.9 C 4.67 g/m*3 10.9 C 0 km/h
370 05-06-2009 01:54:23 10.8 C 4.65 g/m*3 10.8 C 0 km/h
371 05-06-2009 02:06:23 10.7 C 4.71 g/m*3 10.7 C 0 km/h
372 05-06-2009 02:18:23 10.4 C 4.72 g/m*3 10.4 C 0 km/h
373 05-06-2009 02:30:23 10 C 4.7 g/m*3 10 C 0 km/h
374 05-06-2009 02:42:23 9.6 C 4.76 g/m*3 9.6 C 0 km/h
375 05-06-2009 02:54:23 9.2 C 4.91 g/m*3 9.2 C 0 km/h
Sensor: Nr:Datum:Temp:Abs-Feuchte:Windchill:Wind:
Aussen-T/F 376 05-06-2009 03:06:23 9.2 C 5 g/m*3 9.2 C 0 km/h
377 05-06-2009 03:18:23 9.3 C 5.03 g/m*3 9.3 C 0 km/h
378 05-06-2009 03:30:23 9.2 C 5 g/m*3 9.2 C 0 km/h
379 05-06-2009 03:42:23 9 C 5.11 g/m*3 9 C 0 km/h
380 05-06-2009 03:54:23 8.6 C 5.16 g/m*3 8.6 C 0 km/h
381 05-06-2009 04:06:23 8.6 C 5.16 g/m*3 8.6 C 0 km/h
382 05-06-2009 04:18:23 8.6 C 5.24 g/m*3 8.6 C 0 km/h
383 05-06-2009 04:30:23 8.5 C 5.21 g/m*3 8.5 C 0 km/h
384 05-06-2009 04:42:23 8.5 C 5.29 g/m*3 8.5 C 0 km/h
385 05-06-2009 04:54:23 8.5 C 5.38 g/m*3 8.5 C 0 km/h
386 05-06-2009 05:06:23 8.4 C 5.34 g/m*3 8.4 C 0 km/h
387 05-06-2009 05:18:23 8.1 C 5.33 g/m*3 8.1 C 0 km/h
388 05-06-2009 05:30:23 8.2 C 5.44 g/m*3 8.2 C 0 km/h
389 05-06-2009 05:42:23 8.4 C 5.6 g/m*3 8.4 C 0 km/h
390 05-06-2009 05:54:24 8.5 C 5.64 g/m*3 8.5 C 0 km/h
391 05-06-2009 06:06:24 8.5 C 5.72 g/m*3 8.5 C 0 km/h
392 05-06-2009 06:18:24 8.5 C 5.64 g/m*3 8.5 C 0 km/h
393 05-06-2009 06:30:24 8.5 C 5.72 g/m*3 8.5 C 0 km/h
394 05-06-2009 06:42:24 8.5 C 5.72 g/m*3 8.5 C 0 km/h
395 05-06-2009 06:54:24 8.7 C 5.79 g/m*3 8.7 C 0 km/h
396 05-06-2009 07:06:28 8.8 C 5.83 g/m*3 8.8 C 0 km/h
397 05-06-2009 07:18:27 8.9 C 5.78 g/m*3 8.9 C 0 km/h
398 05-06-2009 07:30:28 9.2 C 5.63 g/m*3 9.2 C 0 km/h
399 05-06-2009 07:42:28 10 C 5.64 g/m*3 10 C 0 km/h
400 05-06-2009 07:54:27 10.2 C 5.52 g/m*3 10.2 C 0 km/h
Sensor: Nr:Datum:Temp:Abs-Feuchte:Windchill:Wind:
Aussen-T/F 401 05-06-2009 08:06:27 10.5 C 5.63 g/m*3 10.5 C 0 km/h
402 05-06-2009 08:18:27 10.8 C 5.63 g/m*3 10.8 C 0 km/h
403 05-06-2009 08:30:27 10.6 C 5.56 g/m*3 10.6 C 0 km/h
404 05-06-2009 08:42:27 10.2 C 5.61 g/m*3 10.2 C 0 km/h
405 05-06-2009 08:54:26 10.4 C 5.78 g/m*3 10.4 C 0 km/h
406 05-06-2009 09:06:27 11.5 C 5.78 g/m*3 11.5 C 0 km/h
407 05-06-2009 09:18:26 12.3 C 5.43 g/m*3 12.3 C 0 km/h
408 05-06-2009 09:30:26 12.7 C 5.12 g/m*3 12.7 C 0 km/h
409 05-06-2009 09:42:26 11.8 C 4.95 g/m*3 11.8 C 0 km/h
410 05-06-2009 09:54:26 12.1 C 5.25 g/m*3 12.1 C 0 km/h
411 05-06-2009 10:06:26 12.7 C 5.12 g/m*3 12.7 C 0 km/h
412 05-06-2009 10:18:25 13.1 C 5.02 g/m*3 13.1 C 0 km/h
413 05-06-2009 10:30:26 12.3 C 4.67 g/m*3 12.3 C 0 km/h
414 05-06-2009 10:42:26 13.3 C 4.97 g/m*3 13.3 C 0 km/h
415 05-06-2009 10:54:26 12.6 C 4.54 g/m*3 12.6 C 0 km/h
416 05-06-2009 11:06:25 12.3 C 4.56 g/m*3 12.3 C 0 km/h
417 05-06-2009 11:18:26 13 C 4.76 g/m*3 13 C 0 km/h
418 05-06-2009 11:30:25 13.4 C 4.65 g/m*3 13.4 C 0 km/h
419 05-06-2009 11:42:25 14 C 4.34 g/m*3 14 C 0 km/h
420 05-06-2009 11:54:25 14.3 C 4.18 g/m*3 14.3 C 0 km/h
421 05-06-2009 12:06:24 14.6 C 4.38 g/m*3 14.6 C 0 km/h
422 05-06-2009 12:18:25 15.3 C 4.44 g/m*3 15.3 C 0 km/h
423 05-06-2009 12:30:25 15.6 C 4.26 g/m*3 15.6 C 0 km/h
424 05-06-2009 12:42:25 16.1 C 4.25 g/m*3 16.1 C 0 km/h
425 05-06-2009 12:54:24 16.6 C 4.38 g/m*3 16.6 C 0 km/h
Sensor: Nr:Datum:Temp:Abs-Feuchte:Windchill:Wind:
Aussen-T/F 426 05-06-2009 13:06:25 18.5 C 4.43 g/m*3 18.5 C 0 km/h
427 05-06-2009 13:18:24 17.7 C 4.22 g/m*3 17.7 C 0 km/h
428 05-06-2009 13:30:24 17.2 C 4.25 g/m*3 17.2 C 0 km/h
429 05-06-2009 13:42:25 16.6 C 4.1 g/m*3 16.6 C 0 km/h
430 05-06-2009 13:54:24 16.2 C 4 g/m*3 16.2 C 0 km/h
431 05-06-2009 14:06:24 16.5 C 4.07 g/m*3 16.5 C 0 km/h
432 05-06-2009 14:18:23 16.8 C 4.15 g/m*3 16.8 C 0 km/h
433 05-06-2009 14:30:23 16.6 C 3.96 g/m*3 16.6 C 0 km/h
434 05-06-2009 14:42:23 16.2 C 3.86 g/m*3 16.2 C 0 km/h
435 05-06-2009 14:54:23 16.4 C 4.19 g/m*3 16.4 C 0 km/h
436 05-06-2009 15:06:23 16.8 C 4.15 g/m*3 16.8 C 0 km/h
437 05-06-2009 15:18:23 16.4 C 3.77 g/m*3 16.4 C 0 km/h
438 05-06-2009 15:30:23 16 C 3.95 g/m*3 16 C 0 km/h
439 05-06-2009 15:42:23 15.9 C 3.93 g/m*3 15.9 C 0 km/h
440 05-06-2009 15:54:23 15.6 C 3.72 g/m*3 15.6 C 0 km/h
441 05-06-2009 16:06:22 16.8 C 3.86 g/m*3 16.8 C 0 km/h
442 05-06-2009 16:18:22 17.6 C 4.05 g/m*3 17.6 C 0 km/h
443 05-06-2009 16:30:23 18.4 C 4.09 g/m*3 18.4 C 0 km/h
444 05-06-2009 16:42:23 18.9 C 4.05 g/m*3 18.9 C 0 km/h
445 05-06-2009 16:54:22 20.1 C 4 g/m*3 20.1 C 0 km/h
446 05-06-2009 17:06:21 20 C 3.46 g/m*3 20 C 0 km/h
447 05-06-2009 17:18:22 18.4 C 3.3 g/m*3 18.4 C 0 km/h
448 05-06-2009 17:30:22 20.4 C 3.71 g/m*3 20.4 C 0 km/h
449 05-06-2009 17:42:22 20.7 C 3.6 g/m*3 20.7 C 0 km/h
450 05-06-2009 17:54:21 22 C 3.88 g/m*3 22 C 0 km/h
Sensor: Nr:Datum:Temp:Abs-Feuchte:Windchill:Wind:
Aussen-T/F 451 05-06-2009 18:06:22 22.9 C 4.09 g/m*3 22.9 C 0 km/h
452 05-06-2009 18:18:21 22.9 C 4.09 g/m*3 22.9 C 0 km/h
453 05-06-2009 18:30:21 22.1 C 3.9 g/m*3 22.1 C 0 km/h
454 05-06-2009 18:42:21 21 C 3.66 g/m*3 21 C 0 km/h
455 05-06-2009 18:54:21 20.7 C 3.6 g/m*3 20.7 C 0 km/h
456 05-06-2009 19:06:21 21 C 3.66 g/m*3 21 C 0 km/h
457 05-06-2009 19:18:20 20.2 C 3.5 g/m*3 20.2 C 0 km/h
458 05-06-2009 19:30:20 18.5 C 3.48 g/m*3 18.5 C 0 km/h
459 05-06-2009 19:42:20 17.7 C 3.92 g/m*3 17.7 C 0 km/h
460 05-06-2009 19:54:20 17.9 C 3.97 g/m*3 17.9 C 0 km/h
461 05-06-2009 20:06:20 17.7 C 4.07 g/m*3 17.7 C 0 km/h
462 05-06-2009 20:18:20 17.2 C 4.25 g/m*3 17.2 C 0 km/h
463 05-06-2009 20:30:20 16.9 C 4.6 g/m*3 16.9 C 0 km/h
464 05-06-2009 20:42:20 16 C 4.63 g/m*3 16 C 0 km/h
465 05-06-2009 20:54:20 15 C 4.62 g/m*3 15 C 0 km/h
466 05-06-2009 21:06:20 14.2 C 4.76 g/m*3 14.2 C 0 km/h
467 05-06-2009 21:18:20 13.4 C 4.77 g/m*3 13.4 C 0 km/h
468 05-06-2009 21:30:19 13 C 4.65 g/m*3 13 C 0 km/h
469 05-06-2009 21:42:19 12.7 C 4.9 g/m*3 12.7 C 0 km/h
470 05-06-2009 21:54:20 12.2 C 4.86 g/m*3 12.2 C 0 km/h
471 05-06-2009 22:06:19 11.9 C 4.87 g/m*3 11.9 C 0 km/h
472 05-06-2009 22:18:19 11.8 C 5.05 g/m*3 11.8 C 0 km/h
473 05-06-2009 22:31:19 11.4 C 5.03 g/m*3 11.4 C 0 km/h
474 05-06-2009 22:43:19 11.1 C 5.04 g/m*3 11.1 C 0 km/h
475 05-06-2009 22:55:19 11 C 5.1 g/m*3 11 C 0 km/h
Sensor: Nr:Datum:Temp:Abs-Feuchte:Windchill:Wind:
Aussen-T/F 476 05-06-2009 23:07:19 10.8 C 5.14 g/m*3 10.8 C 0 km/h
477 05-06-2009 23:19:19 10.5 C 5.14 g/m*3 10.5 C 0 km/h
478 05-06-2009 23:31:19 10.4 C 5.2 g/m*3 10.4 C 0 km/h
479 05-06-2009 23:43:19 10.1 C 5.2 g/m*3 10.1 C 0 km/h
480 05-06-2009 23:55:20 10 C 5.17 g/m*3 10 C 0 km/h
481 06-06-2009 00:07:20 9.8 C 5.29 g/m*3 9.8 C 0 km/h
482 06-06-2009 00:19:20 9.7 C 5.35 g/m*3 9.7 C 0 km/h
483 06-06-2009 00:31:20 9.5 C 5.37 g/m*3 9.5 C 0 km/h
484 06-06-2009 00:43:20 9.1 C 5.32 g/m*3 9.1 C 0 km/h
485 06-06-2009 00:55:20 8.9 C 5.43 g/m*3 8.9 C 0 km/h
486 06-06-2009 01:07:20 8.8 C 5.4 g/m*3 8.8 C 0 km/h
487 06-06-2009 01:19:20 8.6 C 5.33 g/m*3 8.6 C 0 km/h
488 06-06-2009 01:31:20 8.6 C 5.41 g/m*3 8.6 C 0 km/h
489 06-06-2009 01:43:20 8.5 C 5.55 g/m*3 8.5 C 0 km/h
490 06-06-2009 01:55:20 8.3 C 5.48 g/m*3 8.3 C 0 km/h
491 06-06-2009 02:07:20 8.2 C 5.53 g/m*3 8.2 C 0 km/h
492 06-06-2009 02:19:20 8.1 C 5.49 g/m*3 8.1 C 0 km/h
493 06-06-2009 02:31:20 8.1 C 5.57 g/m*3 8.1 C 0 km/h
494 06-06-2009 02:43:20 8.1 C 5.66 g/m*3 8.1 C 0 km/h
495 06-06-2009 02:55:20 8.1 C 5.66 g/m*3 8.1 C 0 km/h
496 06-06-2009 03:07:20 8 C 5.79 g/m*3 8 C 0 km/h
497 06-06-2009 03:19:20 7.8 C 5.79 g/m*3 7.8 C 0 km/h
498 06-06-2009 03:31:20 7.6 C 5.8 g/m*3 7.6 C 0 km/h
499 06-06-2009 03:43:20 7.5 C 5.84 g/m*3 7.5 C 0 km/h
500 06-06-2009 03:55:20 7.4 C 5.81 g/m*3 7.4 C 0 km/h
Sensor: Nr:Datum:Temp:Abs-Feuchte:Windchill:Wind:
Aussen-T/F 501 06-06-2009 04:07:21 7.4 C 5.81 g/m*3 7.4 C 0 km/h
502 06-06-2009 04:19:21 7.4 C 5.81 g/m*3 7.4 C 0 km/h
503 06-06-2009 04:31:21 7.3 C 5.85 g/m*3 7.3 C 0 km/h
504 06-06-2009 04:43:21 7.1 C 5.77 g/m*3 7.1 C 0 km/h
505 06-06-2009 04:55:21 7.2 C 5.89 g/m*3 7.2 C 0 km/h
506 06-06-2009 05:07:21 7.4 C 5.96 g/m*3 7.4 C 0 km/h
507 06-06-2009 05:19:21 7.6 C 6.04 g/m*3 7.6 C 0 km/h
508 06-06-2009 05:31:21 7.8 C 6.04 g/m*3 7.8 C 0 km/h
509 06-06-2009 05:43:21 8 C 6.04 g/m*3 8 C 0 km/h
510 06-06-2009 05:55:21 8.1 C 6.07 g/m*3 8.1 C 0 km/h
511 06-06-2009 06:07:21 8.2 C 6.11 g/m*3 8.2 C 0 km/h
512 06-06-2009 06:19:21 8.4 C 6.19 g/m*3 8.4 C 0 km/h
513 06-06-2009 06:31:21 8.7 C 6.23 g/m*3 8.7 C 0 km/h
514 06-06-2009 06:43:21 8.7 C 6.05 g/m*3 8.7 C 0 km/h
515 06-06-2009 06:55:21 8.9 C 6.13 g/m*3 8.9 C 0 km/h
516 06-06-2009 07:07:21 8.9 C 6.13 g/m*3 8.9 C 0 km/h
517 06-06-2009 07:19:21 8.9 C 6.13 g/m*3 8.9 C 0 km/h
518 06-06-2009 07:31:21 8.6 C 6.27 g/m*3 8.6 C 0 km/h
519 06-06-2009 07:43:21 8.6 C 6.44 g/m*3 8.6 C 0 km/h
520 06-06-2009 07:55:21 8.6 C 6.62 g/m*3 8.6 C 0 km/h
521 06-06-2009 08:07:22 8.6 C 6.79 g/m*3 8.6 C 0 km/h
522 06-06-2009 08:19:22 8.6 C 6.96 g/m*3 8.6 C 0 km/h
523 06-06-2009 08:31:22 8.3 C 7.08 g/m*3 8.3 C 0 km/h
524 06-06-2009 08:43:22 8.3 C 7.33 g/m*3 8.3 C 0 km/h
525 06-06-2009 08:55:22 8.2 C 7.37 g/m*3 8.2 C 0 km/h
Sensor: Nr:Datum:Temp:Abs-Feuchte:Windchill:Wind:
Aussen-T/F 526 06-06-2009 09:07:19 8.5 C 7.6 g/m*3 8.5 C 0 km/h
527 06-06-2009 09:19:19 8.4 C 7.63 g/m*3 8.4 C 0 km/h
528 06-06-2009 09:31:20 8.7 C 7.78 g/m*3 8.7 C 0 km/h
529 06-06-2009 09:43:20 8.7 C 7.87 g/m*3 8.7 C 0 km/h
530 06-06-2009 09:55:19 8.9 C 7.97 g/m*3 8.9 C 0 km/h
531 06-06-2009 10:07:19 9.1 C 7.99 g/m*3 9.1 C 0 km/h
532 06-06-2009 10:19:19 9.1 C 7.99 g/m*3 9.1 C 0 km/h
533 06-06-2009 10:31:19 8.9 C 7.97 g/m*3 8.9 C 0 km/h
534 06-06-2009 10:43:19 9 C 7.93 g/m*3 9 C 0 km/h
535 06-06-2009 10:55:18 9 C 7.93 g/m*3 9 C 0 km/h
536 06-06-2009 11:07:19 9 C 7.93 g/m*3 9 C 0 km/h
537 06-06-2009 11:19:18 9 C 7.93 g/m*3 9 C 0 km/h
538 06-06-2009 11:31:18 9.2 C 8.13 g/m*3 9.2 C 0 km/h
539 06-06-2009 11:43:18 9.2 C 8.13 g/m*3 9.2 C 0 km/h
540 06-06-2009 11:55:18 9 C 8.02 g/m*3 9 C 0 km/h
541 06-06-2009 12:07:17 9.2 C 8.13 g/m*3 9.2 C 0 km/h
542 06-06-2009 12:19:18 9.4 C 8.32 g/m*3 9.4 C 0 km/h
543 06-06-2009 12:31:18 9.3 C 8.27 g/m*3 9.3 C 0 km/h
544 06-06-2009 12:43:18 9.3 C 8.27 g/m*3 9.3 C 0 km/h
545 06-06-2009 12:55:17 9.5 C 8.37 g/m*3 9.5 C 0 km/h
546 06-06-2009 13:07:18 9.6 C 8.43 g/m*3 9.6 C 0 km/h
547 06-06-2009 13:19:17 9.7 C 8.48 g/m*3 9.7 C 0 km/h
548 06-06-2009 13:31:17 9.7 C 8.57 g/m*3 9.7 C 0 km/h
549 06-06-2009 13:43:17 9.7 C 8.57 g/m*3 9.7 C 0 km/h
550 06-06-2009 13:55:17 9.6 C 8.52 g/m*3 9.6 C 0 km/h
Sensor: Nr:Datum:Temp:Abs-Feuchte:Windchill:Wind:
Aussen-T/F 551 06-06-2009 14:07:17 9.8 C 8.63 g/m*3 9.8 C 0 km/h
552 06-06-2009 14:19:16 9.8 C 8.63 g/m*3 9.8 C 0 km/h
553 06-06-2009 14:31:16 9.8 C 8.63 g/m*3 9.8 C 0 km/h
554 06-06-2009 14:43:16 9.6 C 8.43 g/m*3 9.6 C 0 km/h
555 06-06-2009 14:55:16 9.5 C 8.37 g/m*3 9.5 C 0 km/h
556 06-06-2009 15:07:16 9.5 C 8.37 g/m*3 9.5 C 0 km/h
557 06-06-2009 15:19:15 9.4 C 8.32 g/m*3 9.4 C 0 km/h
558 06-06-2009 15:31:16 9.5 C 8.37 g/m*3 9.5 C 0 km/h
559 06-06-2009 15:43:16 9.7 C 8.57 g/m*3 9.7 C 0 km/h
560 06-06-2009 15:55:15 9.8 C 8.63 g/m*3 9.8 C 0 km/h
561 06-06-2009 16:07:15 10.1 C 8.7 g/m*3 10.1 C 0 km/h
562 06-06-2009 16:19:16 10.1 C 8.7 g/m*3 10.1 C 0 km/h
563 06-06-2009 16:31:15 9.9 C 8.68 g/m*3 9.9 C 0 km/h
564 06-06-2009 16:43:15 10 C 8.64 g/m*3 10 C 0 km/h
565 06-06-2009 16:55:15 9.9 C 8.68 g/m*3 9.9 C 0 km/h
566 06-06-2009 17:07:15 9.9 C 8.59 g/m*3 9.9 C 0 km/h
567 06-06-2009 17:19:15 9.9 C 8.59 g/m*3 9.9 C 0 km/h
568 06-06-2009 17:31:14 10.1 C 8.61 g/m*3 10.1 C 0 km/h
569 06-06-2009 17:43:14 10.3 C 8.71 g/m*3 10.3 C 0 km/h
570 06-06-2009 17:55:15 10.4 C 8.67 g/m*3 10.4 C 0 km/h
571 06-06-2009 18:07:14 10.5 C 8.73 g/m*3 10.5 C 0 km/h
572 06-06-2009 18:19:14 10.9 C 8.95 g/m*3 10.9 C 0 km/h
573 06-06-2009 18:31:02 10.7 C 8.64 g/m*3 10.7 C 0 km/h
574 06-06-2009 18:43:02 10.8 C 8.7 g/m*3 10.8 C 0 km/h
575 06-06-2009 18:55:01 10.7 C 8.45 g/m*3 10.7 C 0 km/h
Sensor: Nr:Datum:Temp:Abs-Feuchte:Windchill:Wind:
Aussen-T/F 576 06-06-2009 19:07:02 10.8 C 8.5 g/m*3 10.8 C 0 km/h
577 06-06-2009 19:19:01 10.9 C 8.45 g/m*3 10.9 C 0 km/h
578 06-06-2009 19:31:01 11.1 C 8.56 g/m*3 11.1 C 0 km/h
579 06-06-2009 19:43:01 11 C 8.51 g/m*3 11 C 0 km/h
580 06-06-2009 19:55:01 10.9 C 8.65 g/m*3 10.9 C 0 km/h
581 06-06-2009 20:07:01 10.5 C 8.34 g/m*3 10.5 C 0 km/h
582 06-06-2009 20:19:00 10.4 C 8.29 g/m*3 10.4 C 0 km/h
583 06-06-2009 20:31:00 10.4 C 8.38 g/m*3 10.4 C 0 km/h
584 06-06-2009 20:43:00 10.4 C 8.38 g/m*3 10.4 C 0 km/h
585 06-06-2009 20:55:00 10.3 C 8.33 g/m*3 10.3 C 0 km/h
586 06-06-2009 21:07:00 10.3 C 8.43 g/m*3 10.3 C 0 km/h
587 06-06-2009 21:18:59 10.2 C 8.37 g/m*3 10.2 C 0 km/h
588 06-06-2009 21:31:00 10.2 C 8.37 g/m*3 10.2 C 0 km/h
589 06-06-2009 21:43:00 10.1 C 8.32 g/m*3 10.1 C 0 km/h
590 06-06-2009 21:55:59 9.8 C 8.26 g/m*3 9.8 C 0 km/h
591 06-06-2009 22:07:59 9.5 C 8.1 g/m*3 9.5 C 0 km/h
592 06-06-2009 22:19:00 9.4 C 8.14 g/m*3 9.4 C 0 km/h
593 06-06-2009 22:31:59 9.4 C 8.23 g/m*3 9.4 C 0 km/h
594 06-06-2009 22:43:59 9.5 C 8.28 g/m*3 9.5 C 0 km/h
595 06-06-2009 22:55:59 9.6 C 8.43 g/m*3 9.6 C 0 km/h
596 06-06-2009 23:07:59 9.5 C 8.37 g/m*3 9.5 C 0 km/h
597 06-06-2009 23:19:59 9.5 C 8.37 g/m*3 9.5 C 0 km/h
598 06-06-2009 23:31:58 9.2 C 8.13 g/m*3 9.2 C 0 km/h
599 06-06-2009 23:43:58 8.8 C 8.01 g/m*3 8.8 C 0 km/h
600 06-06-2009 23:55:59 8.5 C 7.85 g/m*3 8.5 C 0 km/h

Legende:
   Min
   Max


Maximal/Minimal-Werte vom 02.06.2009 - 06.06.2009

Sensor Min Max Avg
Temp
(Aussen-T/F)
7.1 °C
06-06-2009  04:43:21
29.2 °C
02-06-2009  18:39:47
14.46 °C
Abs-Feuchte
(Aussen-T/F)
3.3 g/m*3
05-06-2009  17:18:22
9.82 g/m*3
02-06-2009  01:39:10
5.8 g/m*3
Windchill
(Aussen-T/F)
7.1 C
06-06-2009  04:43:21
29.2 C
02-06-2009  18:39:47
14.44 C

Die Daten stammen von einer Davis Vantage Pro 2 Wetter-Station und werden unter Linux mit der Software wview2wettercgi und aufbereitet. Alle Angaben erfolgen ohne Gewähr für ihre Vollständigkeit oder Richtigkeit.
Kontakt: Rainer Krienke krienke@uni-koblenz.de . Meine Webseiten an der Uni Koblenz oder privat.
Version: $Revision: 0.78 $